sim
Sign-in with your pilot id or email,
or register
Callsign
Passwort

Schedule Details

Flight Number: OEF9156
Departure: Toronto Pearson International Airport (CYYZ) at 15:05
Arrival: Los Angeles International Airport (KLAX) at 19:50

Weather Information
Getting current METAR information for CYYZ 310700Z 31012KT 15SM SKC 08/04 A3013 RMK SLP206
Getting current METAR information for KLAX 310653Z 25009KT 10SM FEW220 17/12 A2994 RMK AO2 SLP135 T01670122

Schedule Frequency

Route Map